Time;durP1;ratioP1;P1;durP2;ratioP2;P2;SDS_P1;SDS_P2;PMS_P1;PMS_P2;Temp;Humidity;BMP_temperature;BMP_pressure;BME280_temperature;BME280_humidity;BME280_pressure;Samples;Min_cycle;Max_cycle;Signal;HPM_P1;HPM_P2
2022/08/21 00:00:27;;;;;;;21.67;18.83;;;19.20;99.90;;;;;;4958735;28;21035;-78
2022/08/21 00:02:58;;;;;;;22.03;18.83;;;19.10;99.90;;;;;;4952142;29;20488;-82
2022/08/21 00:05:26;;;;;;;22.63;15.60;;;19.10;99.90;;;;;;4958742;28;20607;-79
2022/08/21 00:07:54;;;;;;;19.00;17.10;;;19.10;99.90;;;;;;4951664;28;20467;-80
2022/08/21 00:10:22;;;;;;;20.53;16.03;;;19.10;99.90;;;;;;4950830;28;20415;-84
2022/08/21 00:12:51;;;;;;;22.80;19.00;;;19.10;99.90;;;;;;4944529;29;20484;-85
2022/08/21 00:15:27;;;;;;;21.50;17.10;;;19.00;99.90;;;;;;4946603;29;20442;-81
2022/08/21 00:17:55;;;;;;;25.03;17.40;;;19.00;99.90;;;;;;4946338;29;20447;-82
2022/08/21 00:20:23;;;;;;;22.10;17.97;;;19.00;99.90;;;;;;4954964;28;20616;-79
2022/08/21 00:22:52;;;;;;;19.63;17.27;;;18.90;99.90;;;;;;4950606;29;20443;-84
2022/08/21 00:25:20;;;;;;;20.33;17.07;;;18.90;99.90;;;;;;4961501;28;20449;-82
2022/08/21 00:27:52;;;;;;;22.40;17.67;;;19.00;99.90;;;;;;4949969;29;20514;-81
2022/08/21 00:30:21;;;;;;;21.27;18.97;;;18.90;99.90;;;;;;4958671;28;20852;-83
2022/08/21 00:32:50;;;;;;;26.20;19.30;;;18.90;99.90;;;;;;4955913;28;20520;-83
2022/08/21 00:35:22;;;;;;;19.20;16.27;;;18.90;99.90;;;;;;4960375;28;20425;-82
2022/08/21 00:37:49;;;;;;;17.93;16.13;;;19.00;99.90;;;;;;4968893;29;20420;-80
2022/08/21 00:40:22;;;;;;;18.50;16.50;;;18.90;99.90;;;;;;4967863;28;20513;-82
2022/08/21 00:42:49;;;;;;;18.30;14.47;;;18.90;99.90;;;;;;4958099;29;20448;-81
2022/08/21 00:45:23;;;;;;;17.33;13.87;;;18.80;99.90;;;;;;4967622;28;20440;-82
2022/08/21 00:47:51;;;;;;;23.73;15.80;;;18.90;99.90;;;;;;4968808;28;20444;-81
2022/08/21 00:50:20;;;;;;;17.50;14.80;;;18.90;99.90;;;;;;4959289;28;20446;-83
2022/08/21 00:52:51;;;;;;;15.30;13.27;;;18.80;99.90;;;;;;4964966;29;20584;-82
2022/08/21 00:55:21;;;;;;;20.13;15.43;;;18.80;99.90;;;;;;4961243;28;20456;-84
2022/08/21 00:57:54;;;;;;;15.90;13.43;;;18.70;99.90;;;;;;4968186;29;20492;-81
2022/08/21 01:00:27;;;;;;;24.00;16.47;;;18.90;99.90;;;;;;4971977;28;20392;-80
2022/08/21 01:02:59;;;;;;;19.23;14.77;;;18.80;99.90;;;;;;4986924;28;20412;-80
2022/08/21 01:05:27;;;;;;;15.90;13.50;;;18.80;99.90;;;;;;4975322;28;20444;-85
2022/08/21 01:07:56;;;;;;;16.43;14.17;;;18.80;99.90;;;;;;4970033;28;20771;-85
2022/08/21 01:10:24;;;;;;;18.40;15.87;;;18.70;99.90;;;;;;4963709;28;20450;-86
2022/08/21 01:12:54;;;;;;;17.90;15.37;;;18.70;99.90;;;;;;4962050;28;20812;-88
2022/08/21 01:15:28;;;;;;;18.70;15.87;;;18.80;99.90;;;;;;4960974;29;20703;-85
2022/08/21 01:17:56;;;;;;;23.43;16.30;;;18.80;99.90;;;;;;4949173;29;20442;-85
2022/08/21 01:20:23;;;;;;;21.00;18.07;;;18.70;99.90;;;;;;4958249;28;21036;-81
2022/08/21 01:23:00;;;;;;;20.60;15.47;;;18.70;99.90;;;;;;4958493;28;20578;-84
2022/08/21 01:25:27;;;;;;;19.07;14.50;;;18.70;99.90;;;;;;4955704;28;20530;-81
2022/08/21 01:27:55;;;;;;;15.10;13.57;;;18.60;99.90;;;;;;4946316;29;20447;-85
2022/08/21 01:30:26;;;;;;;24.30;15.30;;;18.60;99.90;;;;;;4947325;28;20611;-81
2022/08/21 01:32:55;;;;;;;16.10;13.90;;;18.60;99.90;;;;;;4951320;28;20484;-83
2022/08/21 01:35:22;;;;;;;15.23;13.33;;;18.80;99.90;;;;;;4957067;28;20535;-82
2022/08/21 01:37:49;;;;;;;13.67;12.30;;;18.70;99.90;;;;;;4961524;29;20516;-83
2022/08/21 01:40:17;;;;;;;14.30;12.90;;;18.50;99.90;;;;;;4965743;28;20440;-86
2022/08/21 01:42:46;;;;;;;15.77;12.70;;;18.40;99.90;;;;;;4978430;28;20423;-81
2022/08/21 01:45:14;;;;;;;15.70;12.70;;;18.40;99.90;;;;;;4979579;28;20407;-83
2022/08/21 01:47:42;;;;;;;12.77;11.33;;;18.40;99.90;;;;;;4978976;28;20440;-81
2022/08/21 01:50:13;;;;;;;24.03;12.80;;;18.40;99.90;;;;;;4968481;28;20437;-81
2022/08/21 01:52:41;;;;;;;14.30;11.40;;;18.40;99.90;;;;;;4958765;28;20459;-83
2022/08/21 01:55:09;;;;;;;12.23;10.87;;;18.40;99.90;;;;;;4962254;28;20766;-82
2022/08/21 01:57:37;;;;;;;10.80;9.60;;;18.40;99.90;;;;;;4955671;28;20451;-81
2022/08/21 02:00:08;;;;;;;11.93;10.23;;;18.40;99.90;;;;;;4954313;28;20515;-81
2022/08/21 02:02:35;;;;;;;13.60;11.83;;;18.40;99.90;;;;;;4953589;28;20432;-83
2022/08/21 02:05:04;;;;;;;11.50;10.30;;;18.40;99.90;;;;;;4958402;28;20520;-84
2022/08/21 02:07:42;;;;;;;9.67;8.67;;;18.30;99.90;;;;;;4958672;29;20460;-83
2022/08/21 02:10:13;;;;;;;11.07;8.97;;;18.30;99.90;;;;;;4949169;28;20441;-81
2022/08/21 02:12:40;;;;;;;10.97;7.80;;;18.30;99.90;;;;;;4950955;28;20452;-80
2022/08/21 02:15:08;;;;;;;8.13;7.33;;;18.30;99.90;;;;;;4958188;28;20420;-80
2022/08/21 02:17:57;;;;;;;8.20;7.27;;;18.20;99.90;;;;;;4961141;28;20434;-80
2022/08/21 02:20:32;;;;;;;7.90;6.20;;;18.10;99.90;;;;;;4950185;29;20452;-85
2022/08/21 02:23:00;;;;;;;7.30;6.70;;;18.10;99.90;;;;;;4952996;28;20783;-86
2022/08/21 02:25:28;;;;;;;6.20;5.60;;;18.10;99.90;;;;;;4952639;29;20444;-84
2022/08/21 02:27:56;;;;;;;7.30;6.27;;;18.00;99.90;;;;;;4955957;28;20445;-81
2022/08/21 02:30:29;;;;;;;7.60;6.90;;;18.00;99.90;;;;;;4952387;29;20460;-84
2022/08/21 02:32:56;;;;;;;5.80;5.30;;;18.00;99.90;;;;;;4951137;28;20490;-83
2022/08/21 02:35:24;;;;;;;6.30;5.57;;;18.00;99.90;;;;;;4956618;28;20445;-83
2022/08/21 02:37:55;;;;;;;6.00;5.43;;;18.10;99.90;;;;;;4958471;28;20428;-85
2022/08/21 02:40:25;;;;;;;5.60;5.03;;;18.00;99.90;;;;;;4956092;29;20433;-84
2022/08/21 02:42:52;;;;;;;7.13;6.43;;;18.00;99.90;;;;;;4946852;29;20429;-84
2022/08/21 02:45:20;;;;;;;8.13;5.83;;;18.00;99.90;;;;;;4953464;28;20485;-82
2022/08/21 02:47:49;;;;;;;7.00;6.37;;;18.10;99.90;;;;;;4955809;28;20441;-80
2022/08/21 02:50:23;;;;;;;6.63;6.03;;;18.00;99.90;;;;;;4958019;28;20441;-81
2022/08/21 02:52:53;;;;;;;6.97;6.27;;;18.00;99.90;;;;;;4951981;29;20493;-82
2022/08/21 02:55:23;;;;;;;7.50;6.73;;;18.00;99.90;;;;;;4957696;29;20423;-83
2022/08/21 02:57:50;;;;;;;7.67;6.67;;;18.00;99.90;;;;;;4958133;28;20448;-82
2022/08/21 03:00:17;;;;;;;6.70;6.10;;;18.00;99.90;;;;;;4956655;28;20420;-80
2022/08/21 03:02:46;;;;;;;6.10;5.23;;;18.00;99.90;;;;;;4947199;28;20449;-79
2022/08/21 03:05:14;;;;;;;7.63;6.67;;;17.90;99.90;;;;;;4959352;28;20408;-81
2022/08/21 03:07:43;;;;;;;7.63;6.37;;;18.00;99.90;;;;;;4971613;28;20444;-77
2022/08/21 03:10:10;;;;;;;7.00;6.37;;;18.00;99.90;;;;;;4959632;28;20444;-81
2022/08/21 03:12:37;;;;;;;7.00;6.30;;;18.00;99.90;;;;;;4950175;28;20463;-80
2022/08/21 03:15:14;;;;;;;5.40;5.00;;;18.00;99.90;;;;;;4949611;28;20482;-82
2022/08/21 03:17:41;;;;;;;5.93;5.40;;;18.00;99.90;;;;;;4947022;29;20436;-76
2022/08/21 03:20:09;;;;;;;7.33;6.40;;;18.00;99.90;;;;;;4949678;28;20430;-82
2022/08/21 03:22:36;;;;;;;6.93;6.23;;;18.00;99.90;;;;;;4946863;29;20531;-80
2022/08/21 03:25:03;;;;;;;5.30;4.80;;;18.00;99.90;;;;;;4947582;28;20488;-78
2022/08/21 03:27:33;;;;;;;6.43;5.83;;;18.00;99.90;;;;;;4953361;28;20448;-82
2022/08/21 03:30:03;;;;;;;5.80;5.30;;;17.90;99.90;;;;;;4945597;29;20412;-79
2022/08/21 03:32:31;;;;;;;6.17;5.50;;;17.90;99.90;;;;;;4950385;29;21032;-82
2022/08/21 03:34:59;;;;;;;6.23;5.57;;;17.90;99.90;;;;;;4945836;28;20468;-81
2022/08/21 03:37:27;;;;;;;5.67;5.07;;;17.90;99.90;;;;;;4946457;29;20425;-80
2022/08/21 03:39:54;;;;;;;6.40;5.80;;;17.90;99.90;;;;;;4954661;29;20456;-79
2022/08/21 03:42:23;;;;;;;5.53;5.03;;;17.90;99.90;;;;;;4948652;29;20477;-80
2022/08/21 03:44:50;;;;;;;5.60;5.10;;;17.90;99.90;;;;;;4945340;29;20453;-82
2022/08/21 03:47:17;;;;;;;5.33;4.83;;;17.80;99.90;;;;;;4946683;29;20483;-79
2022/08/21 03:49:44;;;;;;;6.30;5.70;;;17.80;99.90;;;;;;4944644;28;20614;-79
2022/08/21 03:52:11;;;;;;;5.97;5.47;;;17.80;99.90;;;;;;4951365;28;20445;-82
2022/08/21 03:54:40;;;;;;;5.80;5.30;;;17.70;99.90;;;;;;4952201;28;20507;-80
2022/08/21 03:57:07;;;;;;;5.03;4.63;;;17.80;99.90;;;;;;4948149;29;20454;-79
2022/08/21 03:59:36;;;;;;;5.73;5.17;;;17.80;99.90;;;;;;4948837;29;20754;-80
2022/08/21 04:02:05;;;;;;;6.90;5.47;;;17.80;99.90;;;;;;4945351;29;20915;-78
2022/08/21 04:04:33;;;;;;;5.70;5.23;;;17.70;99.90;;;;;;4947205;29;20453;-80
2022/08/21 04:07:01;;;;;;;5.70;5.20;;;17.80;99.90;;;;;;4944579;29;20763;-81
2022/08/21 04:09:28;;;;;;;7.53;5.70;;;17.80;99.90;;;;;;4952922;29;20516;-78
2022/08/21 04:11:55;;;;;;;4.60;4.30;;;17.80;99.90;;;;;;4941595;29;20447;-80
2022/08/21 04:14:22;;;;;;;4.90;4.50;;;17.70;99.90;;;;;;4945006;28;20509;-80
2022/08/21 04:16:49;;;;;;;6.73;6.13;;;17.70;99.90;;;;;;4944787;28;20423;-80
2022/08/21 04:19:16;;;;;;;6.07;5.57;;;17.70;99.90;;;;;;4954197;28;20436;-81
2022/08/21 04:21:43;;;;;;;4.77;4.37;;;17.70;99.90;;;;;;4955113;28;20858;-80
2022/08/21 04:24:11;;;;;;;5.10;4.70;;;17.70;99.90;;;;;;4953634;28;20434;-78
2022/08/21 04:26:39;;;;;;;6.10;5.60;;;17.70;99.90;;;;;;4947797;28;20441;-78
2022/08/21 04:29:06;;;;;;;5.10;4.70;;;17.70;99.90;;;;;;4939817;29;20434;-84
2022/08/21 04:31:38;;;;;;;5.10;4.60;;;17.60;99.90;;;;;;4948181;29;20773;-80
2022/08/21 04:34:06;;;;;;;4.63;4.23;;;17.60;99.90;;;;;;4953167;28;20461;-80
2022/08/21 04:36:33;;;;;;;5.80;5.30;;;17.60;99.90;;;;;;4948769;28;20425;-81
2022/08/21 04:39:01;;;;;;;5.27;4.73;;;17.70;99.90;;;;;;4952726;28;20420;-80
2022/08/21 04:41:29;;;;;;;5.33;4.83;;;17.70;99.90;;;;;;4945405;28;20455;-80
2022/08/21 04:43:56;;;;;;;6.10;5.53;;;17.70;99.90;;;;;;4953999;28;20526;-83
2022/08/21 04:46:23;;;;;;;5.60;4.33;;;17.80;99.90;;;;;;4944996;29;20434;-80
2022/08/21 04:48:50;;;;;;;13.63;4.60;;;17.70;99.90;;;;;;4952535;28;20479;-80
2022/08/21 04:51:22;;;;;;;5.73;5.23;;;17.70;99.90;;;;;;4951951;28;20444;-81
2022/08/21 04:54:00;;;;;;;5.27;4.47;;;17.70;99.90;;;;;;4947427;28;20498;-82
2022/08/21 04:56:51;;;;;;;4.73;4.33;;;17.70;99.90;;;;;;4952841;29;20451;-80
2022/08/21 04:59:24;;;;;;;4.87;4.47;;;17.70;99.90;;;;;;4953482;29;20431;-82
2022/08/21 05:01:51;;;;;;;6.10;5.50;;;17.70;99.90;;;;;;4956966;29;20790;-81
2022/08/21 05:04:23;;;;;;;6.13;5.63;;;17.80;99.90;;;;;;4954917;29;20609;-81
2022/08/21 05:06:54;;;;;;;4.20;3.80;;;17.70;99.90;;;;;;4955057;28;20445;-80
2022/08/21 05:09:22;;;;;;;4.77;4.37;;;17.70;99.90;;;;;;4970836;29;20732;-80
2022/08/21 05:11:51;;;;;;;5.07;4.67;;;17.70;99.90;;;;;;4969999;28;20530;-81
2022/08/21 05:14:19;;;;;;;4.83;4.10;;;17.70;99.90;;;;;;4953543;28;20511;-81
2022/08/21 05:16:47;;;;;;;4.20;3.90;;;17.70;99.90;;;;;;4950816;29;20769;-82
2022/08/21 05:19:15;;;;;;;4.60;4.30;;;17.60;99.90;;;;;;4945622;29;20520;-80
2022/08/21 05:21:44;;;;;;;5.53;4.50;;;17.60;99.90;;;;;;4951105;28;20779;-83
2022/08/21 05:24:11;;;;;;;4.33;3.93;;;17.40;99.90;;;;;;4946831;28;20772;-81
2022/08/21 05:26:38;;;;;;;4.83;4.43;;;17.50;99.90;;;;;;4946592;29;20464;-81
2022/08/21 05:29:13;;;;;;;3.43;3.13;;;17.50;99.90;;;;;;4948413;28;21067;-82
2022/08/21 05:31:42;;;;;;;3.90;3.60;;;17.50;99.90;;;;;;4953815;29;20458;-82
2022/08/21 05:34:09;;;;;;;4.60;4.20;;;17.50;99.90;;;;;;4951380;28;20917;-81
2022/08/21 05:36:36;;;;;;;5.20;4.80;;;17.50;99.90;;;;;;4945697;28;20457;-80
2022/08/21 05:39:03;;;;;;;4.83;4.20;;;17.40;99.90;;;;;;4951225;28;20434;-82
2022/08/21 05:41:31;;;;;;;5.73;5.30;;;17.40;99.90;;;;;;4945165;28;20427;-81
2022/08/21 05:43:59;;;;;;;4.60;4.20;;;17.50;99.90;;;;;;4951484;29;20450;-82
2022/08/21 05:46:27;;;;;;;5.20;4.63;;;17.40;99.90;;;;;;4943538;28;20450;-80
2022/08/21 05:48:53;;;;;;;6.03;5.53;;;17.40;99.90;;;;;;4945829;29;20448;-85
2022/08/21 05:51:21;;;;;;;5.50;5.00;;;17.40;99.90;;;;;;4950149;29;20424;-86
2022/08/21 05:53:47;;;;;;;4.33;4.03;;;17.40;99.90;;;;;;4951754;28;20512;-83
2022/08/21 05:56:15;;;;;;;5.17;4.73;;;17.40;99.90;;;;;;4950232;28;20459;-85
2022/08/21 05:58:43;;;;;;;5.87;5.37;;;17.40;99.90;;;;;;4951434;28;20438;-82
2022/08/21 06:01:10;;;;;;;5.30;4.90;;;17.40;99.90;;;;;;4950890;28;20514;-80
2022/08/21 06:03:40;;;;;;;5.60;5.10;;;17.40;99.90;;;;;;4944066;28;20456;-82
2022/08/21 06:06:07;;;;;;;4.00;3.70;;;17.40;99.90;;;;;;4957470;28;20448;-81
2022/08/21 06:08:35;;;;;;;6.03;4.60;;;17.40;99.90;;;;;;4949701;29;20833;-82
2022/08/21 06:11:03;;;;;;;5.80;5.20;;;17.30;99.90;;;;;;4946516;28;20435;-87
2022/08/21 06:13:30;;;;;;;4.90;4.50;;;17.30;99.90;;;;;;4950119;28;20781;-85
2022/08/21 06:16:09;;;;;;;5.10;4.70;;;17.30;99.90;;;;;;4948132;29;20463;-86
2022/08/21 06:18:37;;;;;;;5.10;4.70;;;17.30;99.90;;;;;;4959943;28;20488;-83
2022/08/21 06:21:07;;;;;;;6.33;4.30;;;17.30;99.90;;;;;;4962871;28;20438;-85
2022/08/21 06:23:35;;;;;;;4.30;3.90;;;17.30;99.90;;;;;;4961718;29;20515;-85
2022/08/21 06:26:05;;;;;;;15.33;4.57;;;17.30;99.90;;;;;;4960956;29;20474;-83
2022/08/21 06:28:36;;;;;;;5.53;5.03;;;17.30;99.90;;;;;;4937628;29;20547;-80
2022/08/21 06:31:14;;;;;;;4.60;4.13;;;17.30;99.90;;;;;;4950817;28;20655;-81
2022/08/21 06:33:41;;;;;;;5.40;4.97;;;17.30;99.90;;;;;;4958419;29;20488;-84
2022/08/21 06:36:09;;;;;;;5.53;4.47;;;17.30;99.90;;;;;;4953518;28;20779;-81
2022/08/21 06:38:37;;;;;;;5.27;4.53;;;17.20;99.90;;;;;;4951991;29;20453;-85
2022/08/21 06:41:05;;;;;;;5.30;4.90;;;17.20;99.90;;;;;;4952500;28;20689;-82
2022/08/21 06:43:32;;;;;;;5.33;4.87;;;17.30;99.90;;;;;;4952841;28;20461;-78
2022/08/21 06:46:07;;;;;;;6.33;5.50;;;17.30;99.90;;;;;;4946615;29;20512;-83
2022/08/21 06:48:34;;;;;;;6.20;5.60;;;17.40;99.90;;;;;;4951438;29;20424;-81
2022/08/21 06:51:01;;;;;;;5.20;4.80;;;17.30;99.90;;;;;;4954928;29;20445;-80
2022/08/21 06:53:30;;;;;;;6.27;5.70;;;17.20;99.90;;;;;;4945673;28;20691;-80
2022/08/21 06:55:56;;;;;;;7.90;7.20;;;17.10;99.90;;;;;;4952854;28;20434;-81
2022/08/21 06:58:24;;;;;;;9.50;6.83;;;17.10;99.90;;;;;;4948158;29;20463;-81
2022/08/21 07:00:51;;;;;;;7.43;6.00;;;17.00;99.90;;;;;;4962842;29;20436;-81
2022/08/21 07:03:32;;;;;;;8.33;6.30;;;16.90;99.90;;;;;;4985251;28;20421;-80
2022/08/21 07:05:59;;;;;;;8.40;6.83;;;16.70;99.90;;;;;;4976260;28;20443;-80
2022/08/21 07:08:27;;;;;;;8.70;6.97;;;16.50;99.90;;;;;;4976818;28;20491;-80
2022/08/21 07:11:01;;;;;;;7.40;6.47;;;16.50;99.90;;;;;;4966133;29;20511;-79
2022/08/21 07:13:28;;;;;;;7.60;6.37;;;16.40;99.90;;;;;;4963060;28;20481;-81
2022/08/21 07:15:55;;;;;;;8.23;7.40;;;16.30;99.90;;;;;;4975547;28;20458;-83
2022/08/21 07:18:29;;;;;;;8.90;6.87;;;16.30;99.90;;;;;;4965073;28;20494;-80
2022/08/21 07:20:56;;;;;;;8.17;7.37;;;16.30;99.90;;;;;;4960456;28;20457;-81
2022/08/21 07:23:28;;;;;;;8.77;7.07;;;16.20;99.90;;;;;;4969249;28;20456;-80
2022/08/21 07:25:56;;;;;;;8.80;8.00;;;16.10;99.90;;;;;;4970407;28;20445;-80
2022/08/21 07:28:23;;;;;;;11.30;7.87;;;16.20;99.90;;;;;;4964210;28;20446;-82
2022/08/21 07:30:54;;;;;;;7.90;7.10;;;16.20;99.90;;;;;;4965438;28;20455;-82
2022/08/21 07:33:22;;;;;;;8.17;7.37;;;16.20;99.90;;;;;;4967490;28;20549;-83
2022/08/21 07:35:50;;;;;;;9.33;8.40;;;16.20;99.90;;;;;;4965148;28;20756;-80
2022/08/21 07:38:18;;;;;;;8.57;7.70;;;16.20;99.90;;;;;;4960661;28;20445;-79
2022/08/21 07:40:47;;;;;;;13.90;8.53;;;16.20;99.90;;;;;;4974091;28;20447;-79
2022/08/21 07:43:27;;;;;;;12.00;7.80;;;16.30;99.90;;;;;;4970297;28;20467;-81
2022/08/21 07:45:55;;;;;;;8.23;7.43;;;16.20;99.90;;;;;;4957246;28;20448;-81
2022/08/21 07:48:23;;;;;;;11.23;8.83;;;16.20;99.90;;;;;;4969705;28;20452;-82
2022/08/21 07:50:51;;;;;;;9.30;8.20;;;16.10;99.90;;;;;;4973148;28;20452;-83
2022/08/21 07:53:20;;;;;;;11.10;8.00;;;16.10;99.90;;;;;;4970157;28;20507;-85
2022/08/21 07:55:48;;;;;;;8.47;7.50;;;16.10;99.90;;;;;;4972290;28;20434;-85
2022/08/21 07:58:21;;;;;;;8.20;7.40;;;16.10;99.90;;;;;;4976582;28;20458;-79
2022/08/21 08:00:50;;;;;;;8.30;7.50;;;16.00;99.90;;;;;;4978653;28;20677;-82
2022/08/21 08:03:17;;;;;;;8.73;6.63;;;16.00;99.90;;;;;;4969175;28;20482;-82
2022/08/21 08:05:56;;;;;;;10.17;7.27;;;16.00;99.90;;;;;;4958847;28;20456;-80
2022/08/21 08:08:24;;;;;;;7.10;6.50;;;15.90;99.90;;;;;;4962406;28;20508;-80
2022/08/21 08:10:53;;;;;;;8.40;7.60;;;15.90;99.90;;;;;;4976111;28;20448;-79
2022/08/21 08:13:20;;;;;;;7.10;5.50;;;15.90;99.90;;;;;;4964989;28;20462;-78
2022/08/21 08:15:47;;;;;;;6.83;6.13;;;15.80;99.90;;;;;;4974470;28;20481;-84
2022/08/21 08:18:14;;;;;;;7.27;5.67;;;15.80;99.90;;;;;;4962437;28;20463;-80
2022/08/21 08:20:41;;;;;;;10.30;7.17;;;15.90;99.90;;;;;;4961746;28;20463;-82
2022/08/21 08:23:12;;;;;;;5.83;5.00;;;15.90;99.90;;;;;;4964863;28;20447;-81
2022/08/21 08:25:40;;;;;;;6.07;5.00;;;15.80;99.90;;;;;;4960709;28;21079;-83
2022/08/21 08:28:08;;;;;;;6.20;5.60;;;15.80;99.90;;;;;;4953017;29;21095;-80
2022/08/21 08:30:45;;;;;;;5.67;5.27;;;15.90;99.90;;;;;;4963319;28;20475;-82
2022/08/21 08:33:13;;;;;;;6.33;5.50;;;15.90;99.90;;;;;;4961313;28;20658;-80
2022/08/21 08:35:44;;;;;;;7.73;6.57;;;15.90;99.90;;;;;;4964968;28;20558;-81
2022/08/21 08:38:11;;;;;;;6.20;5.60;;;15.90;99.90;;;;;;4961890;28;20450;-81
2022/08/21 08:40:44;;;;;;;8.03;5.40;;;15.90;99.90;;;;;;4958087;28;20472;-79
2022/08/21 08:43:14;;;;;;;10.57;5.87;;;15.90;99.90;;;;;;4964626;28;20411;-82
2022/08/21 08:45:47;;;;;;;7.70;6.17;;;16.00;99.90;;;;;;4964466;28;20471;-80
2022/08/21 08:48:37;;;;;;;6.27;5.67;;;16.00;99.90;;;;;;4964335;29;20463;-81
2022/08/21 08:51:08;;;;;;;6.07;5.57;;;15.90;99.90;;;;;;4961756;28;20447;-82
2022/08/21 08:53:48;;;;;;;5.10;4.70;;;16.00;99.90;;;;;;4959480;28;20493;-83
2022/08/21 08:56:17;;;;;;;6.30;5.33;;;15.90;99.90;;;;;;4967887;28;20446;-84
2022/08/21 08:58:45;;;;;;;7.80;6.60;;;16.00;99.90;;;;;;4963524;28;20584;-79
2022/08/21 09:01:20;;;;;;;13.07;5.93;;;16.10;99.90;;;;;;4963222;28;20667;-81
2022/08/21 09:03:49;;;;;;;6.73;5.70;;;16.20;99.90;;;;;;4960479;28;20442;-85
2022/08/21 09:06:45;;;;;;;7.50;6.70;;;16.20;99.90;;;;;;4957907;28;20449;-83
2022/08/21 09:09:17;;;;;;;7.13;6.50;;;16.40;99.90;;;;;;4963629;28;20440;-79
2022/08/21 09:12:18;;;;;;;6.90;6.20;;;16.60;99.90;;;;;;4969883;28;20502;-84
2022/08/21 09:15:19;;;;;;;9.90;9.00;;;16.60;99.90;;;;;;4965750;28;20543;-80
2022/08/21 09:18:10;;;;;;;10.40;7.80;;;16.60;99.90;;;;;;4966016;28;20461;-81
2022/08/21 09:20:44;;;;;;;11.23;6.10;;;16.60;99.90;;;;;;4973363;28;20395;-84
2022/08/21 09:23:54;;;;;;;6.60;5.47;;;16.50;99.90;;;;;;4973123;28;20965;-85
2022/08/21 09:26:29;;;;;;;4.50;4.20;;;16.40;99.90;;;;;;4947804;28;20451;-84
2022/08/21 09:29:00;;;;;;;4.17;3.67;;;16.40;99.90;;;;;;4955373;28;20435;-81
2022/08/21 09:31:31;;;;;;;5.90;4.37;;;16.50;99.90;;;;;;4957409;28;20476;-81
2022/08/21 09:34:01;;;;;;;3.47;3.17;;;16.50;99.90;;;;;;4956492;28;20487;-82
2022/08/21 09:36:44;;;;;;;8.40;3.63;;;16.50;99.90;;;;;;4950901;28;20451;-81
2022/08/21 09:39:13;;;;;;;3.17;2.87;;;16.50;99.90;;;;;;4955476;29;20845;-80
2022/08/21 09:41:40;;;;;;;2.83;2.63;;;16.40;99.90;;;;;;4947032;29;20484;-83
2022/08/21 09:44:08;;;;;;;3.40;2.77;;;16.50;99.90;;;;;;4953610;28;20464;-87
2022/08/21 09:46:38;;;;;;;3.67;2.70;;;16.50;99.90;;;;;;4950009;28;20696;-84
2022/08/21 09:49:07;;;;;;;2.43;2.23;;;16.50;99.90;;;;;;4963705;29;20635;-83
2022/08/21 09:51:52;;;;;;;2.97;2.47;;;16.50;99.90;;;;;;4976942;28;20437;-81
2022/08/21 09:54:37;;;;;;;5.53;2.97;;;16.20;99.90;;;;;;4962570;28;20889;-79
2022/08/21 10:00:30;;;;;;;2.60;2.40;;;16.10;99.90;;;;;;4972744;28;20456;-79
2022/08/21 10:03:18;;;;;;;3.10;2.87;;;16.40;99.90;;;;;;4962169;28;20511;-81
2022/08/21 10:06:05;;;;;;;3.03;2.23;;;16.60;99.90;;;;;;4958043;28;20818;-80
2022/08/21 10:08:37;;;;;;;2.50;2.27;;;16.80;99.90;;;;;;4956752;28;20456;-80
2022/08/21 10:11:15;;;;;;;3.00;2.00;;;16.70;99.90;;;;;;4955487;28;20726;-81
2022/08/21 10:13:47;;;;;;;2.60;2.40;;;16.70;99.90;;;;;;4963998;28;20762;-84
2022/08/21 10:16:24;;;;;;;2.87;1.90;;;16.80;99.90;;;;;;4972000;28;20442;-81
2022/08/21 10:19:03;;;;;;;4.40;3.47;;;16.80;99.90;;;;;;4974801;28;20440;-82
2022/08/21 10:21:58;;;;;;;3.47;3.17;;;16.60;99.90;;;;;;4957060;28;20468;-80
2022/08/21 10:24:43;;;;;;;3.37;2.40;;;16.60;99.90;;;;;;4971029;28;20514;-81
2022/08/21 10:27:22;;;;;;;3.83;2.37;;;16.60;99.90;;;;;;4968978;28;20544;-80
2022/08/21 10:30:03;;;;;;;8.90;2.57;;;16.60;99.90;;;;;;4969486;28;20815;-83
2022/08/21 10:32:58;;;;;;;3.70;2.67;;;16.70;99.90;;;;;;4965275;28;20514;-81
2022/08/21 10:35:35;;;;;;;6.60;3.33;;;16.80;99.90;;;;;;4964170;28;20487;-83
2022/08/21 10:38:20;;;;;;;2.83;2.63;;;16.90;99.90;;;;;;4977078;28;20439;-82
2022/08/21 10:41:07;;;;;;;2.50;2.00;;;17.00;99.90;;;;;;4947769;29;20755;-82
2022/08/21 10:43:47;;;;;;;3.20;2.20;;;17.20;99.90;;;;;;4950727;28;20446;-82
2022/08/21 10:46:33;;;;;;;2.63;2.43;;;17.30;99.90;;;;;;4963239;28;20576;-84
2022/08/21 10:49:17;;;;;;;4.40;3.07;;;17.20;99.90;;;;;;4971622;28;20443;-81
2022/08/21 10:52:22;;;;;;;4.77;3.50;;;17.30;99.90;;;;;;4972796;28;20431;-83
2022/08/21 10:55:08;;;;;;;3.43;3.13;;;17.30;99.90;;;;;;4965505;28;20467;-82
2022/08/21 10:58:03;;;;;;;3.90;2.77;;;17.40;99.90;;;;;;4963983;28;20418;-83
2022/08/21 11:00:44;;;;;;;4.77;2.97;;;17.70;99.90;;;;;;4971820;28;20493;-83
2022/08/21 11:03:21;;;;;;;3.40;3.10;;;17.80;99.90;;;;;;4960059;28;20444;-82
2022/08/21 11:05:54;;;;;;;5.13;2.87;;;17.70;99.90;;;;;;4961471;28;20430;-81
2022/08/21 11:08:38;;;;;;;3.47;2.40;;;17.70;99.90;;;;;;4962856;28;20467;-81
2022/08/21 11:11:18;;;;;;;3.33;2.67;;;17.90;99.90;;;;;;4962821;28;20418;-83
2022/08/21 11:14:03;;;;;;;3.50;2.77;;;17.80;99.90;;;;;;4973719;28;20459;-82
2022/08/21 11:16:45;;;;;;;3.80;2.70;;;17.70;99.90;;;;;;4963980;28;20445;-82
2022/08/21 11:19:34;;;;;;;4.50;2.30;;;17.80;99.90;;;;;;4952727;28;20446;-82
2022/08/21 11:22:27;;;;;;;3.07;2.63;;;17.80;99.90;;;;;;4963020;29;20467;-83
2022/08/21 11:25:07;;;;;;;3.33;3.07;;;17.80;99.90;;;;;;4964397;28;20444;-78
2022/08/21 11:28:02;;;;;;;3.03;2.63;;;17.80;99.90;;;;;;4965179;29;20470;-83
2022/08/21 11:30:47;;;;;;;7.10;2.67;;;17.80;99.90;;;;;;4964942;28;20539;-80
2022/08/21 11:33:32;;;;;;;4.00;2.23;;;17.80;99.90;;;;;;4962750;28;20433;-81
2022/08/21 11:36:29;;;;;;;3.93;3.03;;;17.80;99.90;;;;;;4966470;28;20563;-83
2022/08/21 11:38:58;;;;;;;4.60;3.47;;;17.80;99.90;;;;;;4947092;29;20769;-81
2022/08/21 11:41:37;;;;;;;6.10;3.00;;;17.70;99.90;;;;;;4958267;28;20506;-83
2022/08/21 11:44:21;;;;;;;3.60;3.30;;;17.70;99.90;;;;;;4958559;28;20520;-81
2022/08/21 11:46:59;;;;;;;4.07;2.17;;;17.70;99.90;;;;;;4954712;28;20460;-82
2022/08/21 11:49:56;;;;;;;2.53;2.33;;;17.60;99.90;;;;;;4953819;28;20452;-82
2022/08/21 11:52:33;;;;;;;2.97;2.77;;;17.60;99.90;;;;;;4957115;28;20521;-82
2022/08/21 11:55:44;;;;;;;2.63;2.10;;;17.70;99.90;;;;;;4955282;28;20468;-83
2022/08/21 11:58:20;;;;;;;8.20;3.20;;;17.90;99.90;;;;;;4960782;28;20452;-82
2022/08/21 12:00:56;;;;;;;3.20;2.90;;;18.20;99.90;;;;;;4957050;28;20674;-81
2022/08/21 12:03:30;;;;;;;3.43;3.13;;;18.10;99.90;;;;;;4952904;28;20520;-81
2022/08/21 12:06:03;;;;;;;3.40;3.20;;;18.40;99.90;;;;;;4958763;28;20456;-82
2022/08/21 12:08:40;;;;;;;5.83;2.63;;;18.40;99.90;;;;;;4963787;28;20754;-82
2022/08/21 12:11:09;;;;;;;4.63;3.57;;;18.40;99.90;;;;;;4963854;28;20440;-82
2022/08/21 12:13:40;;;;;;;2.97;2.60;;;18.50;99.90;;;;;;4963654;28;20633;-83
2022/08/21 12:16:11;;;;;;;2.80;2.60;;;18.40;99.90;;;;;;4956141;28;20488;-83
2022/08/21 12:18:38;;;;;;;2.93;2.60;;;18.30;99.90;;;;;;4948301;28;20453;-84
2022/08/21 12:21:27;;;;;;;4.03;3.23;;;18.20;99.90;;;;;;4988067;28;20478;-83
2022/08/21 12:24:38;;;;;;;2.97;2.67;;;18.30;99.90;;;;;;4984648;28;20434;-84
2022/08/21 12:27:44;;;;;;;5.60;5.07;;;18.20;99.90;;;;;;4961250;28;20421;-80
2022/08/21 12:30:25;;;;;;;3.13;2.30;;;18.00;99.90;;;;;;4963636;28;20526;-81
2022/08/21 12:33:21;;;;;;;4.53;3.37;;;17.90;99.90;;;;;;4958712;28;20452;-83
2022/08/21 12:35:52;;;;;;;2.53;2.33;;;18.00;99.90;;;;;;4965368;28;20494;-84
2022/08/21 12:38:28;;;;;;;3.67;3.37;;;18.10;99.90;;;;;;4958022;29;20454;-84
2022/08/21 12:41:10;;;;;;;4.67;3.07;;;18.10;99.90;;;;;;4955829;29;20450;-82
2022/08/21 12:43:50;;;;;;;3.90;3.40;;;18.00;99.90;;;;;;4959000;29;20501;-82
2022/08/21 12:46:31;;;;;;;2.87;2.67;;;17.90;99.90;;;;;;4958353;28;20532;-81
2022/08/21 12:49:08;;;;;;;3.97;3.03;;;18.00;99.90;;;;;;4956259;28;20453;-83
2022/08/21 12:51:55;;;;;;;2.83;2.50;;;18.00;99.90;;;;;;4948715;29;20457;-82
2022/08/21 12:54:26;;;;;;;6.80;2.90;;;18.00;99.90;;;;;;4945892;28;20418;-81
2022/08/21 12:56:59;;;;;;;3.20;2.90;;;18.10;99.90;;;;;;4954523;28;20497;-84
2022/08/21 12:59:27;;;;;;;5.43;3.13;;;18.20;99.90;;;;;;4971712;28;20470;-83
2022/08/21 13:02:00;;;;;;;3.13;2.80;;;18.20;99.90;;;;;;4964964;28;20595;-83
2022/08/21 13:04:41;;;;;;;5.30;4.00;;;18.10;99.90;;;;;;4969424;28;20447;-84
2022/08/21 13:07:12;;;;;;;5.13;2.30;;;18.00;99.90;;;;;;4962474;28;20414;-82
2022/08/21 13:09:52;;;;;;;3.17;2.87;;;18.10;99.90;;;;;;4961168;28;20455;-84
2022/08/21 13:12:23;;;;;;;3.60;2.40;;;18.30;99.90;;;;;;4964418;28;20449;-82
2022/08/21 13:15:01;;;;;;;3.87;3.50;;;18.30;99.90;;;;;;4958923;28;20488;-84